KRBL/RBL METAR and TAF weather

Enter ICAO airport designator
Station Type Date Time Source
KRBL METAR 2019/06/19 05:54 UTC NOAA

KRBL 190554Z AUTO 31008KT 10SM CLR 28/10 A2982 RMK AO2 SLP092 T02830100 10417 20272 53013


Station Type Date Time Source
KRBL Decoded METAR 2019/06/19 05:54 UTC NOAA

RED BLUFF MUNICIPAL AIRPORT, CA, United States (KRBL) 40-09N 122-15W 104M
Jun 19, 2019 - 01:54 AM EDT / 2019.06.19 0554 UTC
Wind: from the NW (310 degrees) at 9 MPH (8 KT):0
Visibility: 10 mile(s):0
Sky conditions: clear
Temperature: 82.9 F (28.3 C)
Dew Point: 50.0 F (10.0 C)
Relative Humidity: 31%
Pressure (altimeter): 29.82 in. Hg (1009 hPa)
Pressure tendency: 0.04 inches (1.3 hPa) higher than three hours ago
ob: KRBL 190554Z AUTO 31008KT 10SM CLR 28/10 A2982 RMK AO2 SLP092 T02830100 10417 20272 53013
cycle: 6

Station Type Date Time Source
KRBL TAF 2019/06/19 06:22 UTC NOAA

TAF KRBL 190520Z 1906/2006 33006KT P6SM SKC
FM191700 35011G16KT P6SM SKC
FM200300 33007KT P6SM SKC

Example: see airport list